Time;durP1;ratioP1;P1;durP2;ratioP2;P2;SDS_P1;SDS_P2;PMS_P1;PMS_P2;Temp;Humidity;BMP_temperature;BMP_pressure;BME280_temperature;BME280_humidity;BME280_pressure;Samples;Min_cycle;Max_cycle;Signal;HPM_P1;HPM_P2
2022/08/21 12:52:58;;;;;;;5.25;1.73;;;26.00;74.90;;;;;;4859468;29;20120;-87
2022/08/21 12:55:40;;;;;;;3.70;1.50;;;25.90;74.00;;;;;;4859558;29;20033;-87
2022/08/21 12:58:33;;;;;;;4.10;1.15;;;25.90;73.20;;;;;;4860021;29;20021;-87
2022/08/21 13:01:33;;;;;;;4.53;1.50;;;26.00;73.40;;;;;;4859526;29;20121;-87
2022/08/21 13:04:49;;;;;;;3.25;1.23;;;26.00;73.70;;;;;;4860595;29;20026;-88
2022/08/21 13:07:35;;;;;;;4.35;1.50;;;26.00;73.50;;;;;;4842293;29;20038;-87
2022/08/21 13:10:49;;;;;;;;;;;;;;;;;;;;;
2022/08/21 13:13:30;;;;;;;3.75;1.30;;;25.90;72.30;;;;;;4844192;29;20041;-87
2022/08/21 13:16:47;;;;;;;3.28;1.35;;;25.90;72.10;;;;;;4857622;29;20061;-88
2022/08/21 13:19:30;;;;;;;4.07;1.52;;;25.80;72.40;;;;;;4851348;29;20057;-87
2022/08/21 13:22:01;;;;;;;4.90;1.58;;;25.80;72.20;;;;;;4860221;29;20034;-87
2022/08/21 13:27:48;;;;;;;2.85;1.20;;;25.80;71.40;;;;;;4860858;29;20034;-87
2022/08/21 13:30:33;;;;;;;;;;;;;;;;;;;;;
2022/08/21 13:33:09;;;;;;;3.78;1.30;;;25.70;71.10;;;;;;4861260;29;20466;-87
2022/08/21 13:35:59;;;;;;;2.20;1.20;;;25.70;71.00;;;;;;4859180;29;20037;-88
2022/08/21 13:38:48;;;;;;;4.80;1.33;;;25.70;70.20;;;;;;4859630;29;20030;-87
2022/08/21 13:41:30;;;;;;;1.98;0.98;;;25.70;70.50;;;;;;4851849;29;20033;-87
2022/08/21 13:44:37;;;;;;;1.80;1.00;;;25.60;70.80;;;;;;4864528;29;20117;-88
2022/08/21 13:47:11;;;;;;;4.07;1.45;;;25.70;71.10;;;;;;4861786;29;20105;-87
2022/08/21 13:50:02;;;;;;;4.72;1.50;;;25.70;70.80;;;;;;4876845;29;20033;-87
2022/08/21 13:52:58;;;;;;;;;;;;;;;;;;;;;
2022/08/21 13:55:47;;;;;;;;;;;;;;;;;;;;;
2022/08/21 13:58:25;;;;;;;3.60;2.00;;;25.70;70.10;;;;;;4868257;29;20022;-86
2022/08/21 14:00:53;;;;;;;6.00;3.05;;;25.70;70.40;;;;;;4860656;29;20061;-87
2022/08/21 14:03:51;;;;;;;4.78;1.98;;;25.70;70.80;;;;;;4847161;29;20030;-87
2022/08/21 14:06:57;;;;;;;2.90;1.55;;;25.70;70.40;;;;;;4847149;29;20041;-89
2022/08/21 14:09:55;;;;;;;4.10;1.60;;;25.60;70.90;;;;;;4842993;29;20045;-89
2022/08/21 14:12:44;;;;;;;3.55;1.35;;;25.60;72.30;;;;;;4848631;29;20014;-88
2022/08/21 14:15:19;;;;;;;4.80;1.63;;;25.70;73.70;;;;;;4862434;29;20033;-88
2022/08/21 14:18:06;;;;;;;3.67;1.65;;;25.60;75.20;;;;;;4847791;29;20061;-88
2022/08/21 14:21:06;;;;;;;4.32;1.30;;;25.70;75.20;;;;;;4862031;29;20064;-89
2022/08/21 14:27:17;;;;;;;4.70;1.25;;;25.70;75.20;;;;;;4831166;29;20475;-88
2022/08/21 14:30:15;;;;;;;3.47;1.75;;;25.60;74.10;;;;;;4850444;29;20068;-88
2022/08/21 14:32:47;;;;;;;4.18;1.90;;;25.70;74.10;;;;;;4863158;29;20458;-87
2022/08/21 14:38:19;;;;;;;3.65;1.50;;;25.70;74.10;;;;;;4856643;29;20056;-88
2022/08/21 14:43:45;;;;;;;4.72;1.45;;;25.60;75.50;;;;;;4806758;29;20178;-88
2022/08/21 14:47:01;;;;;;;4.38;1.60;;;25.60;74.60;;;;;;4854632;29;20133;-88
2022/08/21 14:49:33;;;;;;;;;;;;;;;;;;;;;
2022/08/21 14:52:32;;;;;;;7.28;1.50;;;25.60;74.30;;;;;;4844248;29;20058;-88
2022/08/21 14:55:29;;;;;;;4.03;1.65;;;25.70;73.80;;;;;;4840254;29;20049;-88
2022/08/21 15:01:14;;;;;;;4.32;1.58;;;25.70;73.70;;;;;;4843966;29;20068;-88
2022/08/21 15:03:45;;;;;;;3.78;1.45;;;25.70;74.30;;;;;;4843662;29;20037;-88
2022/08/21 15:06:25;;;;;;;2.58;1.20;;;25.70;74.30;;;;;;4850257;29;20041;-87
2022/08/21 15:09:02;;;;;;;3.03;1.30;;;25.70;74.20;;;;;;4863036;29;20026;-88
2022/08/21 15:11:42;;;;;;;4.97;1.33;;;25.70;74.00;;;;;;4862017;29;20116;-88
2022/08/21 15:14:15;;;;;;;2.42;1.30;;;25.70;74.20;;;;;;4862487;29;20542;-88
2022/08/21 15:17:09;;;;;;;;;;;;;;;;;;;;;
2022/08/21 15:22:39;;;;;;;2.75;1.30;;;25.80;74.20;;;;;;4862668;29;20128;-88
2022/08/21 15:25:37;;;;;;;3.67;1.40;;;25.80;72.80;;;;;;4861605;29;20053;-87
2022/08/21 15:28:08;;;;;;;3.65;1.27;;;25.80;73.00;;;;;;4860683;29;20475;-87
2022/08/21 15:30:40;;;;;;;4.28;1.38;;;25.80;73.20;;;;;;4861550;29;20037;-87
2022/08/21 15:33:09;;;;;;;3.80;1.33;;;25.70;72.10;;;;;;4861735;29;20039;-87
2022/08/21 15:36:01;;;;;;;3.78;1.48;;;25.80;72.20;;;;;;4861207;29;20033;-87
2022/08/21 15:38:37;;;;;;;6.05;1.38;;;25.80;71.60;;;;;;4858900;29;20045;-88
2022/08/21 15:41:20;;;;;;;3.90;1.27;;;25.70;71.20;;;;;;4842906;29;20061;-89
2022/08/21 15:44:05;;;;;;;4.97;1.23;;;25.70;70.70;;;;;;4843903;29;20022;-89
2022/08/21 15:46:46;;;;;;;3.70;1.50;;;25.70;71.40;;;;;;4844371;29;20057;-89
2022/08/21 15:49:15;;;;;;;2.78;1.15;;;25.70;71.50;;;;;;4859369;29;20029;-90
2022/08/21 15:51:51;;;;;;;5.00;1.40;;;25.70;70.90;;;;;;4861102;29;20078;-88
2022/08/21 15:54:42;;;;;;;5.13;1.50;;;25.70;70.30;;;;;;4846242;29;20079;-88
2022/08/21 15:57:21;;;;;;;4.05;1.60;;;25.70;71.30;;;;;;4862051;29;20052;-88
2022/08/21 16:00:22;;;;;;;3.70;1.45;;;25.70;70.70;;;;;;4862136;29;20069;-89
2022/08/21 16:03:16;;;;;;;;;;;;;;;;;;;;;
2022/08/21 16:06:12;;;;;;;;;;;;;;;;;;;;;
2022/08/21 16:08:51;;;;;;;3.45;1.38;;;25.50;70.80;;;;;;4873342;29;20078;-89
2022/08/21 16:11:30;;;;;;;2.83;1.40;;;25.50;70.80;;;;;;4884545;29;20037;-88
2022/08/21 16:14:06;;;;;;;2.80;1.38;;;25.50;70.10;;;;;;4884627;29;20017;-91
2022/08/21 16:16:38;;;;;;;5.35;1.60;;;25.50;69.70;;;;;;4884662;29;20040;-89
2022/08/21 16:19:06;;;;;;;5.55;1.73;;;25.50;69.00;;;;;;4854063;29;20521;-88
2022/08/21 16:21:43;;;;;;;4.88;1.50;;;25.40;69.00;;;;;;4846854;29;20367;-88
2022/08/21 16:24:12;;;;;;;2.25;1.25;;;25.30;69.30;;;;;;4862920;29;20116;-88
2022/08/21 16:27:22;;;;;;;3.88;1.40;;;25.30;69.20;;;;;;4861572;29;20097;-88
2022/08/21 16:30:04;;;;;;;3.27;1.47;;;25.30;69.20;;;;;;4860706;29;20068;-88
2022/08/21 16:32:50;;;;;;;;;;;;;;;;;;;;;
2022/08/21 16:35:28;;;;;;;3.85;1.70;;;25.20;69.50;;;;;;4862361;29;20036;-88
2022/08/21 16:38:37;;;;;;;3.20;1.35;;;25.20;69.40;;;;;;4862748;29;20433;-90
2022/08/21 16:41:10;;;;;;;6.13;1.42;;;25.10;68.50;;;;;;4853155;29;20046;-89
2022/08/21 16:43:52;;;;;;;3.08;1.40;;;25.00;68.90;;;;;;4862037;29;20036;-88
2022/08/21 16:47:08;;;;;;;;;;;;;;;;;;;;;
2022/08/21 16:49:37;;;;;;;2.78;1.50;;;25.00;69.20;;;;;;4862805;29;20022;-88
2022/08/21 16:52:06;;;;;;;5.75;1.70;;;25.00;69.00;;;;;;4859586;29;20058;-89
2022/08/21 16:54:47;;;;;;;3.33;1.55;;;24.90;68.90;;;;;;4861226;29;20471;-88
2022/08/21 18:02:49;;;;;;;;;;;;;;;;;;;;;
2022/08/21 18:24:45;;;;;;;;;;;;;;;;;;;;;
2022/08/21 18:32:00;;;;;;;;;;;;;;;;;;;;;
2022/08/21 18:42:15;;;;;;;;;;;;;;;;;;;;;
2022/08/21 18:49:28;;;;;;;;;;;;;;;;;;;;;
2022/08/21 18:56:33;;;;;;;6.97;2.55;;;23.80;72.80;;;;;;4722567;30;20561;-93
2022/08/21 19:07:12;;;;;;;;;;;;;;;;;;;;;
2022/08/21 19:10:24;;;;;;;;;;;;;;;;;;;;;
2022/08/21 19:35:08;;;;;;;;;;;;;;;;;;;;;
2022/08/21 19:38:05;;;;;;;;;;;;;;;;;;;;;
2022/08/21 19:59:13;;;;;;;6.07;2.13;;;23.20;77.70;;;;;;4797792;29;20575;-93
2022/08/21 20:02:48;;;;;;;;;;;;;;;;;;;;;
2022/08/21 20:44:52;;;;;;;;;;;;;;;;;;;;;
2022/08/21 21:17:02;;;;;;;;;;;;;;;;;;;;;
2022/08/21 21:20:29;;;;;;;;;;;;;;;;;;;;;
2022/08/21 21:38:57;;;;;;;;;;;;;;;;;;;;;
2022/08/21 21:45:48;;;;;;;;;;;;;;;;;;;;;
2022/08/21 21:52:53;;;;;;;;;;;;;;;;;;;;;
2022/08/21 22:10:36;;;;;;;;;;;;;;;;;;;;;
2022/08/21 22:21:02;;;;;;;;;;;;;;;;;;;;;
2022/08/21 23:49:45;;;;;;;;;;;;;;;;;;;;;
